»·PEaware :: N853PA KSBA-KBUR

N853PA :: KSBA-KBUR

FLIGHT INFORMATION

Flight Status: Arrived
Operator: Privately registered:
United States
More flights under this callsign
Pilot: Coos I. (33036)
Aircraft: BEECH AIRCRAFT BONANZA
(BE36)
More flights by this aircraft type
Origin: KSBA Santa Barbara Mun
United States
Destination: KBUR Bob Hope-Burbank
United States
More flights between these airports :: More routes between these airports
Route: FIM
File this flight plan on PilotEdge
Remarks:
Altitude:
(Current/Filed)
7,500ft
Speed:
(Current/Filed)
0kts
Departed: 10-Jan-21 02:41 PM
Arrived: 10-Jan-21 03:15 PM
Distance/Time
Traveled:
75nm/0:34
Distance/Time
To Go:
Arrived

Flight Plot

Page will automatically refresh every two minutes.


Map Options




Map Legend


Flown Route
Filed Route
Departure Airport
Arrival Airport
Navaid (VOR, NDB)
Fix

Horizontal Profiles

Position Reports

Time Latitude Longitude Heading Altitude Ground
Speed
10-Jan-21 14:26 34.429920 -119.842703 65 12ft 0kts
10-Jan-21 14:27 34.429920 -119.842703 65 12ft 0kts
10-Jan-21 14:28 34.429920 -119.842703 65 12ft 0kts
10-Jan-21 14:29 34.429920 -119.842703 65 12ft 0kts
10-Jan-21 14:30 34.429920 -119.842703 65 12ft 0kts
10-Jan-21 14:31 34.429920 -119.842703 65 12ft 0kts
10-Jan-21 14:32 34.429920 -119.842703 65 12ft 0kts
10-Jan-21 14:33 34.429921 -119.842703 65 12ft 0kts
10-Jan-21 14:34 34.429921 -119.842702 65 12ft 0kts
10-Jan-21 14:35 34.429921 -119.842701 65 12ft 0kts
10-Jan-21 14:36 34.429913 -119.841927 65 13ft 0kts
10-Jan-21 14:37 34.429913 -119.841926 65 13ft 0kts
10-Jan-21 14:38 34.429914 -119.841925 65 13ft 0kts
10-Jan-21 14:39 34.429919 -119.841912 63 13ft 1kts
10-Jan-21 14:40 34.420024 -119.838234 169 133ft 94kts
10-Jan-21 14:41 34.394301 -119.831584 161 960ft 87kts
10-Jan-21 14:42 34.368653 -119.823887 166 1381ft 118kts
10-Jan-21 14:43 34.350294 -119.798584 84 1897ft 95kts
10-Jan-21 14:44 34.355397 -119.764346 76 2781ft 121kts
10-Jan-21 14:45 34.362699 -119.721069 78 3725ft 136kts
10-Jan-21 14:46 34.369914 -119.675904 81 4676ft 137kts
10-Jan-21 14:47 34.371476 -119.630082 86 5620ft 134kts
10-Jan-21 14:48 34.371321 -119.585267 86 6546ft 131kts
10-Jan-21 14:49 34.370163 -119.541481 86 7354ft 134kts
10-Jan-21 14:50 34.368872 -119.490955 87 7479ft 162kts
10-Jan-21 14:51 34.367995 -119.434906 86 7486ft 169kts
10-Jan-21 14:52 34.367530 -119.377427 86 7512ft 170kts
10-Jan-21 14:53 34.367405 -119.321804 86 7504ft 162kts
10-Jan-21 14:54 34.367689 -119.268440 86 7501ft 158kts
10-Jan-21 14:55 34.368350 -119.215108 86 7481ft 158kts
10-Jan-21 14:56 34.369380 -119.161582 86 7495ft 159kts
10-Jan-21 14:57 34.367161 -119.107959 93 7482ft 159kts
10-Jan-21 14:58 34.364048 -119.054657 92 7481ft 158kts
10-Jan-21 14:59 34.361266 -119.001803 92 7480ft 157kts
10-Jan-21 15:00 34.358344 -118.948842 92 7485ft 157kts
10-Jan-21 15:01 34.350826 -118.896631 102 7479ft 158kts
10-Jan-21 15:02 34.337701 -118.845841 104 7488ft 158kts
10-Jan-21 15:03 34.326477 -118.794991 102 7464ft 154kts
10-Jan-21 15:04 34.311418 -118.746941 111 7461ft 154kts
10-Jan-21 15:05 34.293204 -118.699546 112 7477ft 156kts
10-Jan-21 15:06 34.274847 -118.652078 112 7472ft 155kts
10-Jan-21 15:07 34.256602 -118.604957 112 6441ft 146kts
10-Jan-21 15:08 34.242446 -118.562568 79 5119ft 132kts
10-Jan-21 15:09 34.243919 -118.524797 152 3749ft 136kts
10-Jan-21 15:10 34.222719 -118.490032 116 2387ft 135kts
10-Jan-21 15:11 34.211695 -118.448208 108 1770ft 133kts
10-Jan-21 15:12 34.200830 -118.407859 100 1172ft 108kts
10-Jan-21 15:13 34.198044 -118.375105 91 852ft 75kts
10-Jan-21 15:14 34.198467 -118.357948 1 714ft 5kts
10-Jan-21 15:15 34.198543 -118.357946 353 714ft 0kts
10-Jan-21 15:16 34.200304 -118.358884 73 720ft 6kts

Navigation Log

Ident Type
Flight plan parsing failed, navigation log unavailable